NCAR-RAP Real-Time Weather Data

Output produced by METARs form (08 May 2021  01:57 UTC)
found at http://weather.rap.ucar.edu/surface/
 
KSGF 080052Z 00000KT 10SM OVC070 17/07 A3002 RMK AO2 SLP165 T01670072
KSGF 072352Z 17005KT 10SM OVC070 17/07 A3003 RMK AO2 SLP167 60000 T01670067 10217 20167 56023
KSGF 072252Z 15004KT 10SM OVC075 17/07 A3004 RMK AO2 SLP172 T01720067
KSGF 072152Z 20007KT 10SM BKN085 OVC100 17/07 A3007 RMK AO2 RAE10 SLP183 P0000 T01720067
KSGF 072052Z 24006KT 10SM -RA BKN080 OVC100 18/07 A3010 RMK AO2 RAB1958E12B52 SLP191 P0000 60000 T01780067 56022
KSGF 071952Z 23007KT 10SM OVC090 19/04 A3012 RMK AO2 SLP197 T01940039
KSGF 071852Z 21009KT 10SM BKN100 21/05 A3013 RMK AO2 SLP200 T02110050
KSGF 071752Z 21009KT 10SM BKN100 OVC110 19/04 A3017 RMK AO2 SLP214 T01940044 10200 20056 58010
KSGF 071652Z 22008KT 10SM CLR 19/06 A3019 RMK AO2 SLP220 T01940056
KSGF 071552Z 21009KT 10SM CLR 18/04 A3019 RMK AO2 SLP221 T01780044
KSGF 071452Z 21012KT 10SM CLR 16/04 A3020 RMK AO2 SLP223 T01560039
KSGF 071352Z 19007KT 10SM CLR 13/06 A3019 RMK AO2 SLP221 T01330056
KSGF 071345Z 18006KT 10SM CLR 13/06 A3019 RMK AO2 T01330061
KSGF 071252Z 19005KT 10SM CLR 09/06 A3020 RMK AO2 SLP227 T00940061
KSGF 071152Z 14003KT 10SM CLR 05/03 A3019 RMK AO2 SLP223 T00500033 10067 20039 55003